sensor_id;sensor_type;location;lat;lon;timestamp;pressure;altitude;pressure_sealevel;temperature;humidity
50710;BME280;37033;49.994;21.992;2023-05-20T00:02:05;100194.88;;;11.61;92.84
50710;BME280;37033;49.994;21.992;2023-05-20T00:04:35;100195.96;;;11.61;92.92
50710;BME280;37033;49.994;21.992;2023-05-20T00:07:06;100196.09;;;11.60;92.99
50710;BME280;37033;49.994;21.992;2023-05-20T00:09:38;100190.05;;;11.60;92.96
50710;BME280;37033;49.994;21.992;2023-05-20T00:12:09;100192.23;;;11.60;93.02
50710;BME280;37033;49.994;21.992;2023-05-20T00:14:40;100185.49;;;11.60;93.14
50710;BME280;37033;49.994;21.992;2023-05-20T00:17:11;100185.95;;;11.61;93.12
50710;BME280;37033;49.994;21.992;2023-05-20T00:19:41;100187.41;;;11.61;93.23
50710;BME280;37033;49.994;21.992;2023-05-20T00:22:12;100187.73;;;11.61;93.10
50710;BME280;37033;49.994;21.992;2023-05-20T00:24:43;100184.92;;;11.62;93.19
50710;BME280;37033;49.994;21.992;2023-05-20T00:27:14;100182.75;;;11.62;93.14
50710;BME280;37033;49.994;21.992;2023-05-20T00:29:45;100183.91;;;11.63;93.18
50710;BME280;37033;49.994;21.992;2023-05-20T00:32:15;100186.13;;;11.62;93.30
50710;BME280;37033;49.994;21.992;2023-05-20T00:34:56;100179.43;;;11.62;93.21
50710;BME280;37033;49.994;21.992;2023-05-20T00:37:27;100180.40;;;11.62;93.29
50710;BME280;37033;49.994;21.992;2023-05-20T00:39:58;100177.81;;;11.61;93.31
50710;BME280;37033;49.994;21.992;2023-05-20T00:42:29;100182.69;;;11.60;93.39
50710;BME280;37033;49.994;21.992;2023-05-20T00:45:00;100184.64;;;11.58;93.56
50710;BME280;37033;49.994;21.992;2023-05-20T00:47:33;100185.27;;;11.57;93.61
50710;BME280;37033;49.994;21.992;2023-05-20T00:50:07;100183.77;;;11.57;93.69
50710;BME280;37033;49.994;21.992;2023-05-20T00:52:39;100181.50;;;11.58;93.64
50710;BME280;37033;49.994;21.992;2023-05-20T00:55:13;100183.96;;;11.59;93.72
50710;BME280;37033;49.994;21.992;2023-05-20T00:57:44;100182.98;;;11.59;93.88
50710;BME280;37033;49.994;21.992;2023-05-20T01:00:15;100183.40;;;11.60;93.77
50710;BME280;37033;49.994;21.992;2023-05-20T01:02:46;100179.12;;;11.61;93.88
50710;BME280;37033;49.994;21.992;2023-05-20T01:05:17;100178.86;;;11.61;93.79
50710;BME280;37033;49.994;21.992;2023-05-20T01:07:48;100175.55;;;11.61;93.97
50710;BME280;37033;49.994;21.992;2023-05-20T01:10:19;100174.20;;;11.62;93.86
50710;BME280;37033;49.994;21.992;2023-05-20T01:12:55;100175.46;;;11.62;93.91
50710;BME280;37033;49.994;21.992;2023-05-20T01:15:27;100166.15;;;11.62;93.87
50710;BME280;37033;49.994;21.992;2023-05-20T01:18:02;100169.52;;;11.62;93.86
50710;BME280;37033;49.994;21.992;2023-05-20T01:20:35;100173.37;;;11.61;93.75
50710;BME280;37033;49.994;21.992;2023-05-20T01:23:06;100175.67;;;11.62;94.07
50710;BME280;37033;49.994;21.992;2023-05-20T01:25:37;100167.41;;;11.62;94.00
50710;BME280;37033;49.994;21.992;2023-05-20T01:28:07;100167.54;;;11.63;94.00
50710;BME280;37033;49.994;21.992;2023-05-20T01:30:41;100165.98;;;11.64;94.09
50710;BME280;37033;49.994;21.992;2023-05-20T01:33:16;100163.74;;;11.64;94.07
50710;BME280;37033;49.994;21.992;2023-05-20T01:35:50;100167.59;;;11.63;94.09
50710;BME280;37033;49.994;21.992;2023-05-20T01:38:22;100162.32;;;11.64;94.09
50710;BME280;37033;49.994;21.992;2023-05-20T01:40:54;100160.10;;;11.64;94.10
50710;BME280;37033;49.994;21.992;2023-05-20T01:43:27;100158.84;;;11.64;94.10
50710;BME280;37033;49.994;21.992;2023-05-20T01:45:58;100156.16;;;11.63;94.17
50710;BME280;37033;49.994;21.992;2023-05-20T01:48:31;100148.02;;;11.62;94.14
50710;BME280;37033;49.994;21.992;2023-05-20T01:51:01;100150.75;;;11.61;94.13
50710;BME280;37033;49.994;21.992;2023-05-20T01:53:32;100151.55;;;11.60;94.30
50710;BME280;37033;49.994;21.992;2023-05-20T01:56:04;100156.66;;;11.61;94.34
50710;BME280;37033;49.994;21.992;2023-05-20T01:58:35;100158.67;;;11.61;94.43
50710;BME280;37033;49.994;21.992;2023-05-20T02:01:06;100161.55;;;11.61;94.43
50710;BME280;37033;49.994;21.992;2023-05-20T02:03:37;100158.74;;;11.62;94.43
50710;BME280;37033;49.994;21.992;2023-05-20T02:06:08;100157.60;;;11.62;94.42
50710;BME280;37033;49.994;21.992;2023-05-20T02:08:38;100160.61;;;11.63;94.42
50710;BME280;37033;49.994;21.992;2023-05-20T02:11:09;100161.06;;;11.63;94.46
50710;BME280;37033;49.994;21.992;2023-05-20T02:13:40;100157.21;;;11.64;94.51
50710;BME280;37033;49.994;21.992;2023-05-20T02:16:11;100160.48;;;11.64;94.53
50710;BME280;37033;49.994;21.992;2023-05-20T02:18:41;100166.98;;;11.63;94.39
50710;BME280;37033;49.994;21.992;2023-05-20T02:21:12;100171.15;;;11.61;94.55
50710;BME280;37033;49.994;21.992;2023-05-20T02:23:43;100170.06;;;11.62;94.61
50710;BME280;37033;49.994;21.992;2023-05-20T02:26:14;100170.59;;;11.61;94.57
50710;BME280;37033;49.994;21.992;2023-05-20T02:28:45;100169.80;;;11.62;94.75
50710;BME280;37033;49.994;21.992;2023-05-20T02:31:19;100164.73;;;11.62;94.70
50710;BME280;37033;49.994;21.992;2023-05-20T02:33:49;100162.52;;;11.62;94.70
50710;BME280;37033;49.994;21.992;2023-05-20T02:36:20;100157.33;;;11.63;94.84
50710;BME280;37033;49.994;21.992;2023-05-20T02:38:51;100159.17;;;11.64;94.91
50710;BME280;37033;49.994;21.992;2023-05-20T02:41:24;100159.63;;;11.65;94.76
50710;BME280;37033;49.994;21.992;2023-05-20T02:43:55;100160.49;;;11.65;94.85
50710;BME280;37033;49.994;21.992;2023-05-20T02:46:26;100158.70;;;11.65;94.74
50710;BME280;37033;49.994;21.992;2023-05-20T02:48:57;100158.35;;;11.66;94.97
50710;BME280;37033;49.994;21.992;2023-05-20T02:51:28;100158.14;;;11.66;95.01
50710;BME280;37033;49.994;21.992;2023-05-20T02:54:00;100155.20;;;11.66;94.86
50710;BME280;37033;49.994;21.992;2023-05-20T02:56:30;100158.84;;;11.66;94.86
50710;BME280;37033;49.994;21.992;2023-05-20T02:59:02;100155.25;;;11.66;94.90
50710;BME280;37033;49.994;21.992;2023-05-20T03:01:34;100159.98;;;11.66;94.79
50710;BME280;37033;49.994;21.992;2023-05-20T03:04:05;100156.72;;;11.66;94.93
50710;BME280;37033;49.994;21.992;2023-05-20T03:06:36;100159.67;;;11.67;95.07
50710;BME280;37033;49.994;21.992;2023-05-20T03:09:06;100161.05;;;11.68;94.98
50710;BME280;37033;49.994;21.992;2023-05-20T03:11:38;100163.35;;;11.68;95.09
50710;BME280;37033;49.994;21.992;2023-05-20T03:14:09;100165.11;;;11.68;95.05
50710;BME280;37033;49.994;21.992;2023-05-20T03:16:40;100169.18;;;11.68;95.04
50710;BME280;37033;49.994;21.992;2023-05-20T03:19:11;100170.77;;;11.68;94.98
50710;BME280;37033;49.994;21.992;2023-05-20T03:21:41;100170.17;;;11.69;95.15
50710;BME280;37033;49.994;21.992;2023-05-20T03:24:13;100167.12;;;11.68;95.06
50710;BME280;37033;49.994;21.992;2023-05-20T03:26:44;100170.13;;;11.69;95.06
50710;BME280;37033;49.994;21.992;2023-05-20T03:29:15;100175.69;;;11.69;95.06
50710;BME280;37033;49.994;21.992;2023-05-20T03:31:46;100174.23;;;11.69;95.28
50710;BME280;37033;49.994;21.992;2023-05-20T03:34:17;100178.02;;;11.68;95.32
50710;BME280;37033;49.994;21.992;2023-05-20T03:36:49;100180.16;;;11.69;95.42
50710;BME280;37033;49.994;21.992;2023-05-20T03:39:22;100185.63;;;11.70;95.56
50710;BME280;37033;49.994;21.992;2023-05-20T03:41:53;100186.27;;;11.71;95.66
50710;BME280;37033;49.994;21.992;2023-05-20T03:44:23;100186.51;;;11.73;95.64
50710;BME280;37033;49.994;21.992;2023-05-20T03:46:54;100182.36;;;11.76;95.62
50710;BME280;37033;49.994;21.992;2023-05-20T03:49:25;100180.98;;;11.76;95.66
50710;BME280;37033;49.994;21.992;2023-05-20T03:51:55;100186.78;;;11.78;95.63
50710;BME280;37033;49.994;21.992;2023-05-20T03:54:26;100181.46;;;11.78;95.64
50710;BME280;37033;49.994;21.992;2023-05-20T03:56:59;100183.82;;;11.79;95.73
50710;BME280;37033;49.994;21.992;2023-05-20T03:59:31;100182.60;;;11.80;95.74
50710;BME280;37033;49.994;21.992;2023-05-20T04:02:02;100182.98;;;11.82;95.88
50710;BME280;37033;49.994;21.992;2023-05-20T04:04:33;100182.79;;;11.85;95.96
50710;BME280;37033;49.994;21.992;2023-05-20T04:07:05;100182.94;;;11.87;95.94
50710;BME280;37033;49.994;21.992;2023-05-20T04:09:37;100177.07;;;11.90;96.03
50710;BME280;37033;49.994;21.992;2023-05-20T04:12:08;100180.39;;;11.94;96.08
50710;BME280;37033;49.994;21.992;2023-05-20T04:14:39;100179.45;;;11.97;96.25
50710;BME280;37033;49.994;21.992;2023-05-20T04:17:11;100175.34;;;12.01;96.30
50710;BME280;37033;49.994;21.992;2023-05-20T04:19:42;100178.91;;;12.03;96.29
50710;BME280;37033;49.994;21.992;2023-05-20T04:22:13;100186.02;;;12.07;96.31
50710;BME280;37033;49.994;21.992;2023-05-20T04:24:44;100186.46;;;12.12;96.36
50710;BME280;37033;49.994;21.992;2023-05-20T04:27:14;100186.13;;;12.15;96.52
50710;BME280;37033;49.994;21.992;2023-05-20T04:29:46;100184.23;;;12.19;96.35
50710;BME280;37033;49.994;21.992;2023-05-20T04:32:18;100181.44;;;12.23;96.41
50710;BME280;37033;49.994;21.992;2023-05-20T04:34:49;100184.58;;;12.26;96.47
50710;BME280;37033;49.994;21.992;2023-05-20T04:37:20;100181.30;;;12.29;96.57
50710;BME280;37033;49.994;21.992;2023-05-20T04:39:51;100181.70;;;12.33;96.52
50710;BME280;37033;49.994;21.992;2023-05-20T04:42:22;100180.54;;;12.37;96.31
50710;BME280;37033;49.994;21.992;2023-05-20T04:44:54;100181.34;;;12.40;96.52
50710;BME280;37033;49.994;21.992;2023-05-20T04:47:26;100175.17;;;12.42;96.66
50710;BME280;37033;49.994;21.992;2023-05-20T04:49:57;100172.05;;;12.47;96.60
50710;BME280;37033;49.994;21.992;2023-05-20T04:52:28;100172.23;;;12.50;96.55
50710;BME280;37033;49.994;21.992;2023-05-20T04:54:59;100175.69;;;12.55;96.68
50710;BME280;37033;49.994;21.992;2023-05-20T04:57:30;100177.45;;;12.60;96.69
50710;BME280;37033;49.994;21.992;2023-05-20T05:00:05;100178.10;;;12.66;96.61
50710;BME280;37033;49.994;21.992;2023-05-20T05:02:37;100181.35;;;12.72;96.66
50710;BME280;37033;49.994;21.992;2023-05-20T05:05:09;100176.80;;;12.76;96.63
50710;BME280;37033;49.994;21.992;2023-05-20T05:07:40;100176.38;;;12.81;96.65
50710;BME280;37033;49.994;21.992;2023-05-20T05:10:14;100173.20;;;12.85;96.64
50710;BME280;37033;49.994;21.992;2023-05-20T05:12:45;100182.46;;;12.90;96.59
50710;BME280;37033;49.994;21.992;2023-05-20T05:15:16;100180.10;;;12.96;96.57
50710;BME280;37033;49.994;21.992;2023-05-20T05:17:47;100179.48;;;13.02;96.67
50710;BME280;37033;49.994;21.992;2023-05-20T05:20:18;100183.34;;;13.09;96.62
50710;BME280;37033;49.994;21.992;2023-05-20T05:22:49;100183.55;;;13.16;96.45
50710;BME280;37033;49.994;21.992;2023-05-20T05:25:20;100185.39;;;13.23;96.43
50710;BME280;37033;49.994;21.992;2023-05-20T05:27:51;100191.44;;;13.29;96.19
50710;BME280;37033;49.994;21.992;2023-05-20T05:30:24;100196.60;;;13.34;96.18
50710;BME280;37033;49.994;21.992;2023-05-20T05:32:55;100195.66;;;13.39;96.09
50710;BME280;37033;49.994;21.992;2023-05-20T05:35:25;100192.91;;;13.42;95.95
50710;BME280;37033;49.994;21.992;2023-05-20T05:37:56;100195.57;;;13.48;96.05
50710;BME280;37033;49.994;21.992;2023-05-20T05:40:27;100196.46;;;13.51;95.81
50710;BME280;37033;49.994;21.992;2023-05-20T05:42:58;100200.65;;;13.56;95.93
50710;BME280;37033;49.994;21.992;2023-05-20T05:45:29;100201.27;;;13.59;95.82
50710;BME280;37033;49.994;21.992;2023-05-20T05:47:59;100203.88;;;13.63;95.73
50710;BME280;37033;49.994;21.992;2023-05-20T05:50:30;100203.30;;;13.67;95.70
50710;BME280;37033;49.994;21.992;2023-05-20T05:53:01;100204.55;;;13.69;95.63
50710;BME280;37033;49.994;21.992;2023-05-20T05:55:32;100208.41;;;13.71;95.38
50710;BME280;37033;49.994;21.992;2023-05-20T05:58:02;100211.38;;;13.72;95.31
50710;BME280;37033;49.994;21.992;2023-05-20T06:00:33;100213.16;;;13.74;95.36
50710;BME280;37033;49.994;21.992;2023-05-20T06:03:04;100216.38;;;13.76;95.34
50710;BME280;37033;49.994;21.992;2023-05-20T06:05:34;100215.16;;;13.78;95.11
50710;BME280;37033;49.994;21.992;2023-05-20T06:08:06;100206.66;;;13.82;95.16
50710;BME280;37033;49.994;21.992;2023-05-20T06:10:37;100209.20;;;13.86;95.01
50710;BME280;37033;49.994;21.992;2023-05-20T06:13:07;100204.79;;;13.90;95.10
50710;BME280;37033;49.994;21.992;2023-05-20T06:15:40;100202.04;;;13.94;95.01
50710;BME280;37033;49.994;21.992;2023-05-20T06:18:10;100196.94;;;14.02;95.12
50710;BME280;37033;49.994;21.992;2023-05-20T06:20:41;100193.33;;;14.08;95.20
50710;BME280;37033;49.994;21.992;2023-05-20T06:23:12;100192.35;;;14.12;94.94
50710;BME280;37033;49.994;21.992;2023-05-20T06:25:43;100189.83;;;14.20;95.09
50710;BME280;37033;49.994;21.992;2023-05-20T06:28:13;100192.70;;;14.25;94.67
50710;BME280;37033;49.994;21.992;2023-05-20T06:30:44;100187.73;;;14.29;94.62
50710;BME280;37033;49.994;21.992;2023-05-20T06:33:15;100191.00;;;14.34;94.54
50710;BME280;37033;49.994;21.992;2023-05-20T06:35:46;100194.77;;;14.39;94.28
50710;BME280;37033;49.994;21.992;2023-05-20T06:38:16;100197.12;;;14.45;94.24
50710;BME280;37033;49.994;21.992;2023-05-20T06:40:48;100197.58;;;14.50;94.18
50710;BME280;37033;49.994;21.992;2023-05-20T06:43:19;100196.95;;;14.55;93.94
50710;BME280;37033;49.994;21.992;2023-05-20T06:45:50;100198.95;;;14.62;93.78
50710;BME280;37033;49.994;21.992;2023-05-20T06:48:21;100199.83;;;14.65;93.34
50710;BME280;37033;49.994;21.992;2023-05-20T06:50:51;100198.61;;;14.68;93.02
50710;BME280;37033;49.994;21.992;2023-05-20T06:53:22;100196.02;;;14.71;92.96
50710;BME280;37033;49.994;21.992;2023-05-20T06:55:53;100193.39;;;14.74;92.59
50710;BME280;37033;49.994;21.992;2023-05-20T06:58:24;100195.30;;;14.75;92.45
50710;BME280;37033;49.994;21.992;2023-05-20T07:00:55;100193.95;;;14.80;92.22
50710;BME280;37033;49.994;21.992;2023-05-20T07:03:26;100194.06;;;14.86;92.14
50710;BME280;37033;49.994;21.992;2023-05-20T07:05:57;100193.56;;;14.92;92.08
50710;BME280;37033;49.994;21.992;2023-05-20T07:08:27;100195.06;;;15.00;91.49
50710;BME280;37033;49.994;21.992;2023-05-20T07:10:58;100194.27;;;15.06;91.26
50710;BME280;37033;49.994;21.992;2023-05-20T07:13:30;100194.49;;;15.13;91.16
50710;BME280;37033;49.994;21.992;2023-05-20T07:16:00;100193.83;;;15.22;90.83
50710;BME280;37033;49.994;21.992;2023-05-20T07:18:31;100193.28;;;15.29;90.47
50710;BME280;37033;49.994;21.992;2023-05-20T07:21:02;100197.40;;;15.34;90.11
50710;BME280;37033;49.994;21.992;2023-05-20T07:23:33;100188.45;;;15.40;90.05
50710;BME280;37033;49.994;21.992;2023-05-20T07:26:04;100189.69;;;15.44;89.42
50710;BME280;37033;49.994;21.992;2023-05-20T07:28:34;100190.05;;;15.45;89.17
50710;BME280;37033;49.994;21.992;2023-05-20T07:31:05;100193.50;;;15.50;89.03
50710;BME280;37033;49.994;21.992;2023-05-20T07:33:36;100192.61;;;15.53;88.80
50710;BME280;37033;49.994;21.992;2023-05-20T07:36:07;100189.51;;;15.57;88.85
50710;BME280;37033;49.994;21.992;2023-05-20T07:38:38;100191.30;;;15.62;89.16
50710;BME280;37033;49.994;21.992;2023-05-20T07:41:09;100192.92;;;15.70;89.12
50710;BME280;37033;49.994;21.992;2023-05-20T07:43:40;100192.29;;;15.77;88.70
50710;BME280;37033;49.994;21.992;2023-05-20T07:46:10;100188.92;;;15.80;88.17
50710;BME280;37033;49.994;21.992;2023-05-20T07:48:41;100188.38;;;15.81;88.23
50710;BME280;37033;49.994;21.992;2023-05-20T07:51:12;100188.66;;;15.87;88.56
50710;BME280;37033;49.994;21.992;2023-05-20T07:53:43;100188.38;;;15.95;88.52
50710;BME280;37033;49.994;21.992;2023-05-20T07:56:14;100179.59;;;16.06;87.71
50710;BME280;37033;49.994;21.992;2023-05-20T07:58:52;100176.64;;;16.11;87.57
50710;BME280;37033;49.994;21.992;2023-05-20T08:01:23;100178.25;;;16.19;87.37
50710;BME280;37033;49.994;21.992;2023-05-20T08:03:54;100176.73;;;16.21;86.15
50710;BME280;37033;49.994;21.992;2023-05-20T08:06:25;100177.38;;;16.25;86.19
50710;BME280;37033;49.994;21.992;2023-05-20T08:08:56;100176.88;;;16.30;85.70
50710;BME280;37033;49.994;21.992;2023-05-20T08:11:26;100178.36;;;16.32;85.67
50710;BME280;37033;49.994;21.992;2023-05-20T08:13:57;100172.59;;;16.35;84.86
50710;BME280;37033;49.994;21.992;2023-05-20T08:16:28;100174.79;;;16.41;84.91
50710;BME280;37033;49.994;21.992;2023-05-20T08:18:59;100177.04;;;16.47;84.49
50710;BME280;37033;49.994;21.992;2023-05-20T08:21:30;100175.45;;;16.49;84.34
50710;BME280;37033;49.994;21.992;2023-05-20T08:24:00;100174.92;;;16.52;83.78
50710;BME280;37033;49.994;21.992;2023-05-20T08:26:31;100178.71;;;16.57;84.17
50710;BME280;37033;49.994;21.992;2023-05-20T08:29:02;100182.23;;;16.65;83.64
50710;BME280;37033;49.994;21.992;2023-05-20T08:31:32;100181.94;;;16.69;83.20
50710;BME280;37033;49.994;21.992;2023-05-20T08:34:03;100182.90;;;16.75;83.25
50710;BME280;37033;49.994;21.992;2023-05-20T08:36:34;100180.80;;;16.80;82.72
50710;BME280;37033;49.994;21.992;2023-05-20T08:39:05;100180.10;;;16.84;81.89
50710;BME280;37033;49.994;21.992;2023-05-20T08:41:36;100181.16;;;16.87;82.54
50710;BME280;37033;49.994;21.992;2023-05-20T08:44:08;100174.27;;;16.99;83.15
50710;BME280;37033;49.994;21.992;2023-05-20T08:46:39;100175.06;;;17.13;81.88
50710;BME280;37033;49.994;21.992;2023-05-20T08:49:10;100172.92;;;17.23;82.06
50710;BME280;37033;49.994;21.992;2023-05-20T08:51:41;100177.34;;;17.39;82.44
50710;BME280;37033;49.994;21.992;2023-05-20T08:54:14;100176.67;;;17.58;82.12
50710;BME280;37033;49.994;21.992;2023-05-20T08:56:46;100176.78;;;17.71;81.94
50710;BME280;37033;49.994;21.992;2023-05-20T08:59:17;100173.73;;;17.91;81.38
50710;BME280;37033;49.994;21.992;2023-05-20T09:01:48;100165.63;;;18.10;81.14
50710;BME280;37033;49.994;21.992;2023-05-20T09:04:19;100164.60;;;18.24;80.45
50710;BME280;37033;49.994;21.992;2023-05-20T09:06:50;100164.77;;;18.37;80.21
50710;BME280;37033;49.994;21.992;2023-05-20T09:09:21;100157.36;;;18.56;80.70
50710;BME280;37033;49.994;21.992;2023-05-20T09:11:52;100153.80;;;18.75;78.63
50710;BME280;37033;49.994;21.992;2023-05-20T09:14:22;100159.38;;;18.93;78.83
50710;BME280;37033;49.994;21.992;2023-05-20T09:16:55;100159.50;;;19.17;77.99
50710;BME280;37033;49.994;21.992;2023-05-20T09:19:26;100157.43;;;19.41;77.14
50710;BME280;37033;49.994;21.992;2023-05-20T09:21:57;100153.90;;;19.67;76.79
50710;BME280;37033;49.994;21.992;2023-05-20T09:24:27;100152.89;;;19.89;74.30
50710;BME280;37033;49.994;21.992;2023-05-20T09:26:58;100157.08;;;19.88;73.24
50710;BME280;37033;49.994;21.992;2023-05-20T09:29:33;100152.57;;;19.85;73.77
50710;BME280;37033;49.994;21.992;2023-05-20T09:32:05;100152.98;;;19.83;73.67
50710;BME280;37033;49.994;21.992;2023-05-20T09:34:36;100149.23;;;19.79;73.28
50710;BME280;37033;49.994;21.992;2023-05-20T09:37:07;100148.48;;;19.80;73.94
50710;BME280;37033;49.994;21.992;2023-05-20T09:39:45;100146.26;;;19.80;73.61
50710;BME280;37033;49.994;21.992;2023-05-20T09:42:23;100148.36;;;19.79;72.94
50710;BME280;37033;49.994;21.992;2023-05-20T09:44:58;100147.23;;;19.85;73.23
50710;BME280;37033;49.994;21.992;2023-05-20T09:47:29;100143.18;;;19.96;72.18
50710;BME280;37033;49.994;21.992;2023-05-20T09:50:01;100141.22;;;20.03;72.30
50710;BME280;37033;49.994;21.992;2023-05-20T09:52:32;100138.88;;;20.05;72.25
50710;BME280;37033;49.994;21.992;2023-05-20T09:55:05;100141.04;;;20.12;72.70
50710;BME280;37033;49.994;21.992;2023-05-20T09:57:36;100134.30;;;20.20;71.71
50710;BME280;37033;49.994;21.992;2023-05-20T10:00:08;100131.89;;;20.24;71.75
50710;BME280;37033;49.994;21.992;2023-05-20T10:02:44;100124.22;;;20.39;70.70
50710;BME280;37033;49.994;21.992;2023-05-20T10:05:18;100121.27;;;20.47;70.25
50710;BME280;37033;49.994;21.992;2023-05-20T10:08:08;100122.94;;;20.60;69.86
50710;BME280;37033;49.994;21.992;2023-05-20T10:10:48;100124.30;;;20.76;69.99
50710;BME280;37033;49.994;21.992;2023-05-20T10:13:32;100126.04;;;20.74;68.52
50710;BME280;37033;49.994;21.992;2023-05-20T10:16:28;100125.89;;;20.66;69.38
50710;BME280;37033;49.994;21.992;2023-05-20T10:19:08;100124.71;;;20.67;69.04
50710;BME280;37033;49.994;21.992;2023-05-20T10:21:41;100122.89;;;20.72;69.27
50710;BME280;37033;49.994;21.992;2023-05-20T10:24:12;100122.12;;;20.84;69.69
50710;BME280;37033;49.994;21.992;2023-05-20T10:26:56;100121.08;;;20.88;69.02
50710;BME280;37033;49.994;21.992;2023-05-20T10:29:27;100119.06;;;20.90;68.77
50710;BME280;37033;49.994;21.992;2023-05-20T10:31:57;100117.52;;;21.00;68.31
50710;BME280;37033;49.994;21.992;2023-05-20T10:34:28;100118.21;;;21.18;68.06
50710;BME280;37033;49.994;21.992;2023-05-20T10:37:23;100114.52;;;21.39;67.48
50710;BME280;37033;49.994;21.992;2023-05-20T10:40:07;100111.23;;;21.57;67.12
50710;BME280;37033;49.994;21.992;2023-05-20T10:42:38;100111.83;;;21.61;66.26
50710;BME280;37033;49.994;21.992;2023-05-20T10:45:09;100108.05;;;21.62;65.56
50710;BME280;37033;49.994;21.992;2023-05-20T10:47:54;100107.63;;;21.65;65.01
50710;BME280;37033;49.994;21.992;2023-05-20T10:50:32;100107.23;;;21.78;65.00
50710;BME280;37033;49.994;21.992;2023-05-20T10:53:12;100106.91;;;21.73;65.61
50710;BME280;37033;49.994;21.992;2023-05-20T10:55:50;100100.96;;;21.79;66.06
50710;BME280;37033;49.994;21.992;2023-05-20T10:58:21;100095.70;;;21.97;66.44
50710;BME280;37033;49.994;21.992;2023-05-20T11:00:53;100088.62;;;22.12;65.97
50710;BME280;37033;49.994;21.992;2023-05-20T11:03:25;100089.16;;;22.22;65.33
50710;BME280;37033;49.994;21.992;2023-05-20T11:05:56;100085.31;;;22.29;64.56
50710;BME280;37033;49.994;21.992;2023-05-20T11:08:28;100085.59;;;22.32;63.84
50710;BME280;37033;49.994;21.992;2023-05-20T11:10:59;100078.34;;;22.47;63.74
50710;BME280;37033;49.994;21.992;2023-05-20T11:13:31;100081.02;;;22.59;63.66
50710;BME280;37033;49.994;21.992;2023-05-20T11:16:02;100077.20;;;22.71;63.35
50710;BME280;37033;49.994;21.992;2023-05-20T11:18:33;100076.19;;;22.78;62.12
50710;BME280;37033;49.994;21.992;2023-05-20T11:21:04;100076.31;;;22.80;60.80
50710;BME280;37033;49.994;21.992;2023-05-20T11:23:35;100074.45;;;22.79;62.25
50710;BME280;37033;49.994;21.992;2023-05-20T11:26:06;100073.33;;;23.00;62.10
50710;BME280;37033;49.994;21.992;2023-05-20T11:28:37;100074.73;;;23.15;60.23
50710;BME280;37033;49.994;21.992;2023-05-20T11:31:08;100071.91;;;23.13;59.74
50710;BME280;37033;49.994;21.992;2023-05-20T11:33:42;100068.23;;;23.18;60.21
50710;BME280;37033;49.994;21.992;2023-05-20T11:36:12;100065.12;;;23.18;60.01
50710;BME280;37033;49.994;21.992;2023-05-20T11:38:46;100063.58;;;23.25;59.85
50710;BME280;37033;49.994;21.992;2023-05-20T11:41:16;100057.27;;;23.24;59.92
50710;BME280;37033;49.994;21.992;2023-05-20T11:43:57;100051.66;;;23.22;60.78
50710;BME280;37033;49.994;21.992;2023-05-20T11:46:28;100047.02;;;23.29;60.48
50710;BME280;37033;49.994;21.992;2023-05-20T11:48:59;100048.48;;;23.36;59.56
50710;BME280;37033;49.994;21.992;2023-05-20T11:51:30;100047.55;;;23.39;58.72
50710;BME280;37033;49.994;21.992;2023-05-20T11:54:02;100047.36;;;23.52;60.20
50710;BME280;37033;49.994;21.992;2023-05-20T11:56:33;100052.23;;;23.67;60.00
50710;BME280;37033;49.994;21.992;2023-05-20T11:59:06;100049.02;;;23.81;59.71
50710;BME280;37033;49.994;21.992;2023-05-20T12:01:38;100049.52;;;23.93;58.59
50710;BME280;37033;49.994;21.992;2023-05-20T12:04:10;100040.54;;;23.91;58.41
50710;BME280;37033;49.994;21.992;2023-05-20T12:06:42;100037.75;;;24.03;59.17
50710;BME280;37033;49.994;21.992;2023-05-20T12:09:14;100035.69;;;24.16;59.07
50710;BME280;37033;49.994;21.992;2023-05-20T12:11:45;100029.71;;;24.23;58.87
50710;BME280;37033;49.994;21.992;2023-05-20T12:14:15;100023.81;;;24.41;57.76
50710;BME280;37033;49.994;21.992;2023-05-20T12:16:46;100018.14;;;24.50;57.77
50710;BME280;37033;49.994;21.992;2023-05-20T12:19:17;100010.73;;;24.65;57.97
50710;BME280;37033;49.994;21.992;2023-05-20T12:21:47;100012.11;;;24.74;55.61
50710;BME280;37033;49.994;21.992;2023-05-20T12:24:18;100011.80;;;24.61;56.73
50710;BME280;37033;49.994;21.992;2023-05-20T12:26:49;100009.67;;;24.59;56.33
50710;BME280;37033;49.994;21.992;2023-05-20T12:29:20;100008.36;;;24.48;56.11
50710;BME280;37033;49.994;21.992;2023-05-20T12:31:50;100005.01;;;24.51;56.67
50710;BME280;37033;49.994;21.992;2023-05-20T12:34:21;100004.05;;;24.65;56.27
50710;BME280;37033;49.994;21.992;2023-05-20T12:36:52;99999.70;;;24.78;55.64
50710;BME280;37033;49.994;21.992;2023-05-20T12:39:23;99991.50;;;24.83;55.59
50710;BME280;37033;49.994;21.992;2023-05-20T12:41:53;99993.06;;;24.89;53.35
50710;BME280;37033;49.994;21.992;2023-05-20T12:44:24;99987.67;;;24.80;54.01
50710;BME280;37033;49.994;21.992;2023-05-20T12:46:56;99985.79;;;24.84;53.08
50710;BME280;37033;49.994;21.992;2023-05-20T12:49:26;99982.20;;;24.87;51.18
50710;BME280;37033;49.994;21.992;2023-05-20T12:51:57;99981.21;;;24.85;50.02
50710;BME280;37033;49.994;21.992;2023-05-20T12:54:28;99972.81;;;24.92;50.24
50710;BME280;37033;49.994;21.992;2023-05-20T12:56:59;99969.51;;;25.03;50.66
50710;BME280;37033;49.994;21.992;2023-05-20T12:59:30;99966.36;;;25.02;51.02
50710;BME280;37033;49.994;21.992;2023-05-20T13:02:01;99962.20;;;25.03;51.21
50710;BME280;37033;49.994;21.992;2023-05-20T13:04:31;99955.48;;;25.14;50.20